Time;durP1;ratioP1;P1;durP2;ratioP2;P2;SDS_P1;SDS_P2;PMS_P1;PMS_P2;Temp;Humidity;BMP_temperature;BMP_pressure;BME280_temperature;BME280_humidity;BME280_pressure;Samples;Min_cycle;Max_cycle;Signal;HPM_P1;HPM_P2
2022/07/25 00:01:00;;;;;;;7.25;5.85;;;23.30;55.90;;;;;;938745;149;27294;-75
2022/07/25 00:03:26;;;;;;;6.83;6.22;;;23.30;56.00;;;;;;939958;149;27359;-75
2022/07/25 00:05:53;;;;;;;7.25;6.55;;;23.30;56.10;;;;;;936940;149;27362;-75
2022/07/25 00:08:20;;;;;;;6.78;6.22;;;23.30;56.30;;;;;;938540;149;27464;-75
2022/07/25 00:10:46;;;;;;;5.80;5.37;;;23.20;56.30;;;;;;938528;149;27319;-75
2022/07/25 00:13:13;;;;;;;6.92;6.25;;;23.20;56.40;;;;;;939136;149;27314;-75
2022/07/25 00:15:39;;;;;;;8.53;7.55;;;23.20;56.50;;;;;;939798;149;27432;-75
2022/07/25 00:18:06;;;;;;;8.95;8.13;;;23.20;56.60;;;;;;942574;149;27366;-75
2022/07/25 00:20:33;;;;;;;8.75;7.72;;;23.20;56.60;;;;;;939694;149;27315;-75
2022/07/25 00:22:59;;;;;;;8.45;7.55;;;23.20;57.40;;;;;;938136;149;27328;-75
2022/07/25 00:25:26;;;;;;;7.85;7.15;;;23.10;56.70;;;;;;938986;149;27768;-75
2022/07/25 00:27:52;;;;;;;7.47;6.85;;;23.10;56.90;;;;;;939587;149;27459;-75
2022/07/25 00:30:19;;;;;;;7.95;7.15;;;23.10;57.00;;;;;;937847;149;27380;-75
2022/07/25 00:32:45;;;;;;;6.60;6.10;;;23.10;57.10;;;;;;937564;149;27318;-75
2022/07/25 00:35:12;;;;;;;8.28;7.55;;;23.10;57.20;;;;;;942364;150;27291;-75
2022/07/25 00:37:39;;;;;;;7.92;7.22;;;23.00;57.30;;;;;;942064;150;27468;-75
2022/07/25 00:40:05;;;;;;;7.45;6.75;;;23.00;57.50;;;;;;944682;148;27311;-75
2022/07/25 00:42:32;;;;;;;7.08;6.47;;;23.00;57.50;;;;;;943304;149;27357;-75
2022/07/25 00:44:59;;;;;;;7.95;7.25;;;23.00;57.60;;;;;;942919;150;27364;-76
2022/07/25 00:47:25;;;;;;;7.42;6.83;;;23.00;57.70;;;;;;943815;150;27430;-75
2022/07/25 00:49:52;;;;;;;7.62;6.90;;;23.00;57.70;;;;;;944303;150;27363;-75
2022/07/25 00:52:18;;;;;;;10.30;9.25;;;22.90;57.80;;;;;;945147;150;27339;-75
2022/07/25 00:54:45;;;;;;;8.25;7.50;;;22.90;57.90;;;;;;942744;150;27349;-75
2022/07/25 00:57:11;;;;;;;7.55;6.83;;;22.90;58.00;;;;;;943113;150;27354;-75
2022/07/25 00:59:38;;;;;;;6.40;5.87;;;22.90;58.10;;;;;;942400;150;27295;-75
2022/07/25 01:02:05;;;;;;;7.33;6.65;;;22.90;58.20;;;;;;945886;150;27306;-75
2022/07/25 01:04:31;;;;;;;6.22;5.72;;;22.90;58.30;;;;;;943823;150;27415;-75
2022/07/25 01:06:58;;;;;;;6.67;6.17;;;22.80;58.20;;;;;;945254;150;27282;-75
2022/07/25 01:09:25;;;;;;;8.10;7.30;;;22.80;58.40;;;;;;943543;150;27357;-75
2022/07/25 01:11:51;;;;;;;8.28;7.47;;;22.80;58.30;;;;;;943782;150;27456;-75
2022/07/25 01:14:18;;;;;;;7.30;6.65;;;22.80;58.40;;;;;;943571;150;27427;-75
2022/07/25 01:16:44;;;;;;;7.70;7.00;;;22.80;58.60;;;;;;943168;150;27850;-75
2022/07/25 01:19:11;;;;;;;6.97;6.37;;;22.70;58.00;;;;;;940861;150;27383;-75
2022/07/25 01:21:38;;;;;;;6.35;5.83;;;22.70;58.60;;;;;;942898;150;27769;-75
2022/07/25 01:24:04;;;;;;;7.03;6.42;;;22.70;58.70;;;;;;943173;150;27431;-75
2022/07/25 01:26:30;;;;;;;6.72;6.10;;;22.70;58.80;;;;;;942796;150;27287;-75
2022/07/25 01:28:57;;;;;;;6.45;5.95;;;22.70;58.80;;;;;;943095;150;27318;-75
2022/07/25 01:31:24;;;;;;;6.62;6.03;;;22.70;58.90;;;;;;942869;150;27311;-75
2022/07/25 01:33:50;;;;;;;6.37;5.83;;;22.70;59.00;;;;;;943259;148;27406;-75
2022/07/25 01:36:17;;;;;;;7.22;6.53;;;22.60;59.00;;;;;;941347;149;27464;-75
2022/07/25 01:38:43;;;;;;;6.53;6.03;;;22.60;59.30;;;;;;938038;149;27342;-75
2022/07/25 01:41:10;;;;;;;7.05;6.45;;;22.60;59.30;;;;;;938880;149;27332;-75
2022/07/25 01:43:37;;;;;;;6.62;6.00;;;22.60;59.40;;;;;;940327;147;27330;-75
2022/07/25 01:46:03;;;;;;;6.78;6.22;;;22.60;59.40;;;;;;938581;149;27295;-75
2022/07/25 01:48:30;;;;;;;7.47;6.83;;;22.60;59.40;;;;;;937249;149;27460;-75
2022/07/25 01:50:56;;;;;;;6.60;6.10;;;22.60;59.50;;;;;;938433;149;27403;-75
2022/07/25 01:53:23;;;;;;;6.75;6.25;;;22.60;59.50;;;;;;941257;149;27448;-75
2022/07/25 01:55:50;;;;;;;6.50;5.95;;;22.60;59.60;;;;;;939406;149;27364;-75
2022/07/25 01:58:16;;;;;;;7.05;6.35;;;22.60;59.70;;;;;;939366;149;27646;-75
2022/07/25 02:00:43;;;;;;;6.83;6.33;;;22.60;59.70;;;;;;940359;149;27443;-75
2022/07/25 02:05:54;;;;;;;7.05;6.47;;;22.50;59.80;;;;;;938784;149;27460;-75
2022/07/25 02:08:20;;;;;;;6.85;6.15;;;22.50;59.90;;;;;;939037;149;27384;-75
2022/07/25 02:10:47;;;;;;;7.55;6.75;;;22.50;59.90;;;;;;940571;149;27417;-76
2022/07/25 02:13:14;;;;;;;6.72;6.08;;;22.50;60.00;;;;;;941267;149;27439;-75
2022/07/25 02:15:40;;;;;;;7.25;6.55;;;22.50;59.90;;;;;;940268;149;27434;-76
2022/07/25 02:18:07;;;;;;;6.85;6.25;;;22.50;60.00;;;;;;939036;149;27454;-75
2022/07/25 02:20:33;;;;;;;6.83;6.33;;;22.40;59.90;;;;;;939699;149;27424;-76
2022/07/25 02:23:01;;;;;;;6.92;6.30;;;22.40;59.90;;;;;;939158;149;27368;-75
2022/07/25 02:25:27;;;;;;;6.62;6.03;;;22.40;60.00;;;;;;939096;149;27283;-75
2022/07/25 02:27:53;;;;;;;6.17;5.67;;;22.40;60.00;;;;;;940769;149;27346;-75
2022/07/25 02:30:20;;;;;;;7.75;6.72;;;22.30;60.00;;;;;;940479;149;27479;-75
2022/07/25 02:32:46;;;;;;;6.53;6.03;;;22.30;60.10;;;;;;939360;149;27331;-75
2022/07/25 02:35:13;;;;;;;6.83;6.12;;;22.30;60.20;;;;;;948358;147;27378;-75
2022/07/25 02:37:40;;;;;;;6.47;5.97;;;22.20;60.30;;;;;;955128;147;27688;-76
2022/07/25 02:40:06;;;;;;;6.72;6.10;;;22.20;60.30;;;;;;955727;147;27463;-76
2022/07/25 02:42:33;;;;;;;6.55;6.05;;;22.10;60.30;;;;;;954968;147;27443;-75
2022/07/25 02:45:00;;;;;;;6.03;5.53;;;22.10;60.30;;;;;;954825;147;27484;-75
2022/07/25 02:47:26;;;;;;;8.68;6.70;;;22.10;60.40;;;;;;955326;147;27309;-75
2022/07/25 02:49:53;;;;;;;6.50;6.00;;;22.00;60.50;;;;;;954226;147;27372;-76
2022/07/25 02:52:19;;;;;;;6.78;6.17;;;22.00;60.60;;;;;;956650;147;27341;-75
2022/07/25 02:54:46;;;;;;;6.35;5.85;;;22.00;60.80;;;;;;956317;147;27408;-76
2022/07/25 02:57:12;;;;;;;7.00;6.40;;;22.00;60.90;;;;;;956635;147;27372;-75
2022/07/25 02:59:39;;;;;;;6.95;6.37;;;21.90;61.00;;;;;;956069;147;27298;-73
2022/07/25 03:02:06;;;;;;;7.47;6.83;;;21.90;61.20;;;;;;954090;147;27395;-75
2022/07/25 03:04:32;;;;;;;6.97;6.37;;;21.90;61.40;;;;;;956545;147;27361;-75
2022/07/25 03:06:59;;;;;;;7.65;6.95;;;21.90;60.70;;;;;;953698;147;27346;-74
2022/07/25 03:09:25;;;;;;;7.05;6.35;;;21.80;61.50;;;;;;956985;147;27518;-74
2022/07/25 03:11:52;;;;;;;6.17;5.70;;;21.80;61.50;;;;;;956271;147;27283;-75
2022/07/25 03:14:19;;;;;;;7.05;6.45;;;21.80;61.50;;;;;;954063;147;27295;-74
2022/07/25 03:16:45;;;;;;;6.55;5.95;;;21.80;61.70;;;;;;954961;147;27254;-73
2022/07/25 03:19:13;;;;;;;6.05;5.53;;;21.80;61.70;;;;;;956662;147;27435;-76
2022/07/25 03:21:38;;;;;;;6.45;5.95;;;21.80;61.80;;;;;;952617;147;27378;-74
2022/07/25 03:24:05;;;;;;;6.37;5.75;;;21.70;61.80;;;;;;955183;147;27387;-74
2022/07/25 03:26:32;;;;;;;6.53;5.92;;;21.70;61.90;;;;;;953852;147;27315;-74
2022/07/25 03:28:58;;;;;;;7.17;6.60;;;21.70;62.00;;;;;;954960;147;27286;-74
2022/07/25 03:31:25;;;;;;;6.87;6.22;;;21.70;62.30;;;;;;954608;147;27287;-75
2022/07/25 03:33:51;;;;;;;7.22;6.62;;;21.70;62.50;;;;;;954033;147;27598;-74
2022/07/25 03:36:18;;;;;;;6.70;6.08;;;21.70;62.50;;;;;;943997;147;27386;-74
2022/07/25 03:38:44;;;;;;;8.43;6.17;;;21.60;62.80;;;;;;937760;149;27283;-74
2022/07/25 03:41:11;;;;;;;6.83;6.30;;;21.60;62.70;;;;;;939756;149;28628;-74
2022/07/25 03:43:38;;;;;;;6.40;5.90;;;21.60;62.80;;;;;;939651;149;27305;-75
2022/07/25 03:46:04;;;;;;;6.08;5.58;;;21.60;62.80;;;;;;940217;149;27398;-76
2022/07/25 03:48:31;;;;;;;7.33;6.60;;;21.60;62.80;;;;;;940763;149;27460;-74
2022/07/25 03:50:57;;;;;;;7.33;6.62;;;21.60;63.00;;;;;;941097;149;27318;-74
2022/07/25 03:53:24;;;;;;;7.03;6.42;;;21.60;63.20;;;;;;939516;149;27404;-74
2022/07/25 03:55:51;;;;;;;7.00;6.40;;;21.60;63.20;;;;;;940990;149;27368;-74
2022/07/25 03:58:17;;;;;;;7.40;6.70;;;21.60;63.40;;;;;;940549;149;27412;-76
2022/07/25 04:00:44;;;;;;;6.95;6.45;;;21.60;63.60;;;;;;938602;149;27359;-74
2022/07/25 04:03:10;;;;;;;7.55;6.58;;;21.60;63.60;;;;;;939659;149;27330;-74
2022/07/25 04:05:37;;;;;;;7.20;6.60;;;21.70;63.90;;;;;;940454;149;27324;-74
2022/07/25 04:08:04;;;;;;;6.70;6.10;;;21.70;63.90;;;;;;938000;149;27367;-74
2022/07/25 04:10:30;;;;;;;6.80;6.22;;;21.70;63.90;;;;;;939116;149;27677;-74
2022/07/25 04:12:57;;;;;;;7.28;6.58;;;21.70;63.80;;;;;;938568;149;27451;-73
2022/07/25 04:15:23;;;;;;;6.72;6.03;;;21.80;63.90;;;;;;937853;149;27346;-73
2022/07/25 04:17:50;;;;;;;7.40;6.80;;;21.80;63.90;;;;;;939537;149;27459;-74
2022/07/25 04:20:16;;;;;;;7.12;6.53;;;21.80;64.40;;;;;;940013;149;27390;-74
2022/07/25 04:22:43;;;;;;;7.03;6.47;;;21.90;63.90;;;;;;939510;149;27235;-74
2022/07/25 04:25:10;;;;;;;7.00;6.40;;;21.90;63.90;;;;;;939586;149;27377;-76
2022/07/25 04:27:37;;;;;;;6.67;6.17;;;21.90;63.90;;;;;;938129;149;27338;-74
2022/07/25 04:30:03;;;;;;;7.08;6.47;;;21.90;63.90;;;;;;939313;149;27288;-74
2022/07/25 04:32:29;;;;;;;7.35;6.65;;;22.00;63.90;;;;;;937738;149;27342;-74
2022/07/25 04:34:56;;;;;;;7.17;6.58;;;22.00;63.90;;;;;;937372;149;27308;-76
2022/07/25 04:37:23;;;;;;;6.85;6.25;;;22.10;64.00;;;;;;942877;149;27358;-76
2022/07/25 04:39:49;;;;;;;6.67;6.10;;;22.10;63.90;;;;;;943126;150;27349;-74
2022/07/25 04:42:16;;;;;;;6.75;6.15;;;22.20;63.90;;;;;;942904;150;27392;-74
2022/07/25 04:44:42;;;;;;;6.78;6.17;;;22.20;63.90;;;;;;943295;150;27420;-75
2022/07/25 04:47:09;;;;;;;7.03;6.45;;;22.30;63.80;;;;;;943418;150;27306;-75
2022/07/25 04:49:36;;;;;;;7.58;6.90;;;22.30;63.80;;;;;;943071;150;27287;-74
2022/07/25 04:52:02;;;;;;;7.12;6.53;;;22.40;63.90;;;;;;941468;150;27791;-74
2022/07/25 04:54:29;;;;;;;6.95;6.37;;;22.40;63.70;;;;;;943796;150;28593;-74
2022/07/25 04:56:55;;;;;;;7.12;6.53;;;22.50;63.80;;;;;;943875;150;27393;-74
2022/07/25 04:59:22;;;;;;;7.17;6.42;;;22.60;63.90;;;;;;941388;150;27282;-74
2022/07/25 05:01:48;;;;;;;6.53;5.92;;;22.70;64.30;;;;;;943564;150;27348;-74
2022/07/25 05:04:15;;;;;;;6.60;6.10;;;22.90;64.90;;;;;;944331;150;27468;-76
2022/07/25 05:06:42;;;;;;;6.72;6.17;;;23.20;65.50;;;;;;944527;150;27447;-75
2022/07/25 05:09:09;;;;;;;7.33;6.62;;;23.50;65.70;;;;;;942620;150;27331;-74
2022/07/25 05:11:35;;;;;;;10.00;6.28;;;24.00;65.80;;;;;;944569;150;27258;-74
2022/07/25 05:14:01;;;;;;;6.17;5.62;;;24.40;65.70;;;;;;942820;150;27299;-74
2022/07/25 05:16:28;;;;;;;6.22;5.70;;;25.00;65.60;;;;;;942850;150;27339;-76
2022/07/25 05:18:55;;;;;;;6.20;5.70;;;25.60;65.40;;;;;;941854;150;27457;-74
2022/07/25 05:21:21;;;;;;;5.95;5.53;;;26.30;64.80;;;;;;942931;150;27435;-73
2022/07/25 05:23:48;;;;;;;6.75;5.60;;;27.10;64.10;;;;;;941173;150;27320;-74
2022/07/25 05:26:14;;;;;;;5.97;5.47;;;27.90;62.90;;;;;;942988;148;27309;-74
2022/07/25 05:28:41;;;;;;;5.35;4.95;;;28.70;61.80;;;;;;944449;150;27275;-76
2022/07/25 05:31:08;;;;;;;5.58;5.17;;;29.50;60.20;;;;;;943538;150;27367;-76
2022/07/25 05:33:34;;;;;;;5.90;5.40;;;30.30;59.00;;;;;;943223;150;27473;-75
2022/07/25 05:36:02;;;;;;;5.42;5.03;;;31.10;57.90;;;;;;943607;148;27396;-75
2022/07/25 05:38:27;;;;;;;5.33;4.95;;;31.80;56.70;;;;;;943317;148;27363;-75
2022/07/25 05:40:54;;;;;;;5.53;5.08;;;32.50;55.50;;;;;;943911;150;27267;-76
2022/07/25 05:43:21;;;;;;;5.65;5.15;;;33.20;54.40;;;;;;942621;149;27443;-77
2022/07/25 05:45:47;;;;;;;5.40;5.00;;;33.80;53.30;;;;;;942247;149;27440;-75
2022/07/25 05:48:14;;;;;;;4.87;4.58;;;34.40;52.20;;;;;;942450;150;27399;-75
2022/07/25 05:50:40;;;;;;;4.80;4.50;;;34.90;51.20;;;;;;944953;150;27295;-76
2022/07/25 05:53:07;;;;;;;4.92;4.28;;;35.50;50.60;;;;;;941354;150;26282;-75
2022/07/25 05:55:33;;;;;;;4.53;4.12;;;36.00;49.90;;;;;;944807;150;26164;-78
2022/07/25 05:58:00;;;;;;;7.55;4.37;;;36.50;48.90;;;;;;943448;150;26258;-75
2022/07/25 06:00:27;;;;;;;4.80;4.40;;;37.00;48.10;;;;;;943966;150;26359;-73
2022/07/25 06:02:53;;;;;;;5.20;4.72;;;37.50;47.30;;;;;;942170;150;27399;-73
2022/07/25 06:05:20;;;;;;;4.78;4.22;;;38.00;46.70;;;;;;941192;150;26302;-74
2022/07/25 06:07:46;;;;;;;7.05;4.25;;;38.40;45.60;;;;;;941172;150;26198;-75
2022/07/25 06:10:13;;;;;;;4.50;4.20;;;38.90;44.90;;;;;;942186;150;26263;-75
2022/07/25 06:12:40;;;;;;;6.60;4.55;;;39.30;44.30;;;;;;945054;150;26262;-74
2022/07/25 06:15:06;;;;;;;5.37;4.22;;;39.70;43.60;;;;;;944469;149;26300;-74
2022/07/25 06:17:33;;;;;;;4.60;4.20;;;40.20;43.00;;;;;;944017;150;26316;-74
2022/07/25 06:19:59;;;;;;;6.58;4.62;;;40.60;42.10;;;;;;943927;150;26332;-74
2022/07/25 06:22:26;;;;;;;4.80;4.47;;;41.00;41.20;;;;;;944599;150;26254;-76
2022/07/25 06:24:53;;;;;;;4.33;4.03;;;41.40;40.60;;;;;;942654;150;26277;-74
2022/07/25 06:27:19;;;;;;;3.90;3.60;;;41.70;39.90;;;;;;943625;149;26179;-74
2022/07/25 06:29:46;;;;;;;4.10;3.80;;;42.00;39.20;;;;;;944159;150;26265;-74
2022/07/25 06:32:12;;;;;;;4.47;4.08;;;42.30;38.70;;;;;;944161;148;26280;-74
2022/07/25 06:34:39;;;;;;;4.03;3.65;;;42.60;38.30;;;;;;944216;150;26207;-75
2022/07/25 06:37:05;;;;;;;4.03;3.72;;;42.90;37.80;;;;;;940742;148;26637;-74
2022/07/25 06:39:32;;;;;;;4.12;3.83;;;43.10;37.10;;;;;;942158;150;26259;-75
2022/07/25 06:41:59;;;;;;;4.15;3.87;;;43.50;36.90;;;;;;943456;150;26163;-74
2022/07/25 06:44:26;;;;;;;5.55;4.20;;;43.80;36.30;;;;;;942256;149;26247;-74
2022/07/25 06:46:52;;;;;;;4.10;3.70;;;44.20;35.70;;;;;;942614;149;26227;-74
2022/07/25 06:49:18;;;;;;;4.28;3.98;;;44.50;35.30;;;;;;941965;150;26278;-76
2022/07/25 06:51:45;;;;;;;3.87;3.58;;;44.80;34.70;;;;;;943323;150;26298;-74
2022/07/25 06:54:14;;;;;;;3.95;3.65;;;45.10;34.30;;;;;;943191;148;26251;-74
2022/07/25 06:56:38;;;;;;;3.70;3.47;;;45.40;33.80;;;;;;941336;150;26196;-74
2022/07/25 06:59:05;;;;;;;3.55;3.33;;;45.70;33.30;;;;;;944635;150;26223;-74
2022/07/25 07:01:31;;;;;;;3.80;3.60;;;46.00;32.80;;;;;;943730;150;26328;-76
2022/07/25 07:03:58;;;;;;;3.27;3.08;;;46.30;32.50;;;;;;941547;150;26370;-74
2022/07/25 07:06:25;;;;;;;4.22;3.92;;;46.70;32.20;;;;;;943182;150;26347;-74
2022/07/25 07:08:51;;;;;;;3.52;3.33;;;47.00;31.60;;;;;;942870;148;26316;-74
2022/07/25 07:11:18;;;;;;;3.72;3.42;;;47.40;31.10;;;;;;944809;150;26239;-75
2022/07/25 07:13:44;;;;;;;3.77;3.58;;;47.70;30.70;;;;;;942289;148;26285;-76
2022/07/25 07:16:11;;;;;;;3.02;2.83;;;48.10;30.20;;;;;;944576;149;26359;-74
2022/07/25 07:18:37;;;;;;;3.40;3.20;;;48.40;30.00;;;;;;942662;150;26342;-74
2022/07/25 07:21:04;;;;;;;3.85;3.55;;;48.70;29.70;;;;;;943397;150;26155;-75
2022/07/25 07:23:31;;;;;;;3.90;3.25;;;49.10;29.30;;;;;;943014;150;26336;-76
2022/07/25 07:25:57;;;;;;;3.20;3.00;;;49.50;29.00;;;;;;943484;150;26222;-75
2022/07/25 07:28:24;;;;;;;3.62;3.37;;;49.80;28.50;;;;;;942311;150;26187;-76
2022/07/25 07:30:50;;;;;;;3.50;3.20;;;50.00;28.20;;;;;;943290;150;26389;-75
2022/07/25 07:33:17;;;;;;;3.30;3.10;;;50.30;28.00;;;;;;944523;150;26259;-76
2022/07/25 07:35:44;;;;;;;3.15;2.95;;;50.60;27.80;;;;;;942925;150;26195;-75
2022/07/25 07:38:10;;;;;;;3.77;3.30;;;50.80;27.40;;;;;;942080;148;26268;-75
2022/07/25 07:40:37;;;;;;;3.52;3.22;;;51.10;27.60;;;;;;944804;148;26254;-75
2022/07/25 07:43:05;;;;;;;3.33;3.12;;;51.30;26.80;;;;;;944700;150;26270;-76
2022/07/25 07:45:30;;;;;;;6.40;3.42;;;51.40;26.50;;;;;;943305;150;26281;-75
2022/07/25 07:47:57;;;;;;;3.15;2.95;;;51.60;26.40;;;;;;943324;150;26231;-75
2022/07/25 07:50:23;;;;;;;3.37;3.15;;;51.70;26.20;;;;;;941515;150;26319;-75
2022/07/25 07:52:50;;;;;;;3.12;2.92;;;51.90;26.00;;;;;;943518;150;26281;-75
2022/07/25 07:58:01;;;;;;;3.20;3.00;;;52.10;25.70;;;;;;942483;150;26277;-75
2022/07/25 08:00:29;;;;;;;4.95;3.42;;;52.30;25.70;;;;;;942361;150;26272;-75
2022/07/25 08:02:54;;;;;;;3.10;2.90;;;52.50;25.60;;;;;;942435;150;26822;-75
2022/07/25 08:05:24;;;;;;;3.05;2.85;;;52.70;25.40;;;;;;944508;150;26281;-75
2022/07/25 08:07:50;;;;;;;3.30;2.87;;;52.90;25.30;;;;;;942545;150;26366;-77
2022/07/25 08:10:20;;;;;;;3.20;3.00;;;53.10;25.00;;;;;;942690;149;26278;-75
2022/07/25 08:12:46;;;;;;;3.08;2.87;;;53.30;24.70;;;;;;943778;148;26327;-75
2022/07/25 08:15:13;;;;;;;4.33;3.00;;;53.50;24.60;;;;;;942675;149;26276;-75
2022/07/25 08:17:40;;;;;;;3.17;2.98;;;53.70;24.40;;;;;;944230;150;26239;-75
2022/07/25 08:22:35;;;;;;;2.75;2.55;;;53.90;24.20;;;;;;973473;145;36047;-76
2022/07/25 08:25:01;;;;;;;3.40;3.10;;;54.20;24.10;;;;;;954718;148;26292;-76
2022/07/25 08:27:28;;;;;;;2.85;2.65;;;54.20;23.70;;;;;;953255;149;26180;-76
2022/07/25 08:29:55;;;;;;;2.62;2.47;;;54.20;23.40;;;;;;953061;147;26318;-77
2022/07/25 08:32:21;;;;;;;2.95;2.75;;;54.20;23.40;;;;;;952918;149;26267;-76
2022/07/25 08:34:48;;;;;;;2.92;2.72;;;54.20;23.40;;;;;;954275;147;26324;-76
2022/07/25 08:37:14;;;;;;;2.98;2.80;;;54.30;23.40;;;;;;953671;149;26248;-76
2022/07/25 08:39:42;;;;;;;3.00;2.80;;;54.30;23.20;;;;;;952273;147;26217;-77
2022/07/25 08:42:08;;;;;;;3.55;2.80;;;54.40;23.20;;;;;;953590;148;26289;-76
2022/07/25 08:44:34;;;;;;;3.00;2.80;;;54.40;23.00;;;;;;953529;149;26267;-79
2022/07/25 08:47:01;;;;;;;2.80;2.62;;;54.50;22.90;;;;;;951750;147;26831;-76
2022/07/25 08:49:27;;;;;;;2.95;2.70;;;54.50;22.80;;;;;;954788;149;26213;-75
2022/07/25 08:51:54;;;;;;;2.22;2.12;;;54.50;22.60;;;;;;947496;147;26928;-76
2022/07/25 08:54:20;;;;;;;2.70;2.50;;;54.50;22.40;;;;;;942152;151;26192;-77
2022/07/25 08:56:47;;;;;;;2.80;2.60;;;54.50;22.40;;;;;;940271;150;26256;-79
2022/07/25 08:59:14;;;;;;;2.58;2.37;;;54.40;22.30;;;;;;941920;151;26387;-76
2022/07/25 09:01:40;;;;;;;2.72;2.50;;;54.40;22.30;;;;;;940470;151;26302;-76
2022/07/25 09:04:07;;;;;;;4.67;2.62;;;54.30;22.30;;;;;;940708;151;26216;-76
2022/07/25 09:06:34;;;;;;;3.70;2.35;;;54.30;22.20;;;;;;941135;149;26277;-76
2022/07/25 09:09:03;;;;;;;2.65;2.45;;;54.20;22.10;;;;;;941908;151;26310;-77
2022/07/25 09:11:30;;;;;;;3.77;3.47;;;54.20;22.20;;;;;;940440;150;26251;-76
2022/07/25 09:13:59;;;;;;;3.10;2.80;;;54.10;22.20;;;;;;939159;149;26329;-76
2022/07/25 09:16:28;;;;;;;2.80;2.60;;;54.10;22.10;;;;;;941797;149;26235;-76
2022/07/25 09:18:54;;;;;;;2.87;2.65;;;54.00;22.10;;;;;;941895;151;26259;-78
2022/07/25 09:21:21;;;;;;;3.20;2.60;;;54.00;22.00;;;;;;936869;151;26356;-75
2022/07/25 09:23:48;;;;;;;4.05;3.00;;;54.00;22.10;;;;;;935304;149;26225;-76
2022/07/25 09:26:14;;;;;;;3.67;2.90;;;53.90;22.50;;;;;;934639;149;26197;-76
2022/07/25 09:28:43;;;;;;;2.90;2.70;;;53.90;21.90;;;;;;935514;152;26221;-76
2022/07/25 09:31:10;;;;;;;2.17;2.08;;;53.90;22.00;;;;;;937292;152;26268;-78
2022/07/25 09:33:46;;;;;;;2.80;2.60;;;53.90;22.00;;;;;;932698;151;26691;-76
2022/07/25 09:36:12;;;;;;;4.47;2.77;;;54.00;21.90;;;;;;934886;151;26237;-77
2022/07/25 09:38:39;;;;;;;3.50;2.40;;;54.00;21.80;;;;;;936964;151;26200;-76
2022/07/25 09:41:06;;;;;;;3.30;2.70;;;54.00;21.70;;;;;;935311;149;26214;-78
2022/07/25 09:43:38;;;;;;;3.70;2.70;;;54.00;21.60;;;;;;935400;151;26281;-75
2022/07/25 09:46:04;;;;;;;2.72;2.52;;;54.00;21.60;;;;;;935184;151;26257;-76
2022/07/25 09:48:31;;;;;;;2.60;2.45;;;53.90;21.50;;;;;;934586;152;26309;-75
2022/07/25 09:50:58;;;;;;;2.58;2.37;;;53.90;21.60;;;;;;934064;151;26307;-77
2022/07/25 09:53:24;;;;;;;2.67;2.47;;;53.70;21.40;;;;;;934813;149;26229;-77
2022/07/25 09:55:55;;;;;;;2.42;2.30;;;53.60;21.40;;;;;;934882;149;26338;-78
2022/07/25 09:58:17;;;;;;;3.27;2.70;;;53.50;21.40;;;;;;935111;149;26287;-76
2022/07/25 10:00:44;;;;;;;2.95;2.75;;;53.30;21.40;;;;;;935708;149;26309;-76
2022/07/25 10:03:10;;;;;;;2.90;2.60;;;53.20;21.40;;;;;;935631;150;26170;-76
2022/07/25 10:05:50;;;;;;;2.90;2.47;;;53.00;21.40;;;;;;933165;149;26204;-76
2022/07/25 10:08:16;;;;;;;2.70;2.50;;;52.70;21.30;;;;;;933851;152;26329;-76
2022/07/25 10:10:42;;;;;;;2.60;2.40;;;52.30;21.60;;;;;;934813;149;26813;-76
2022/07/25 10:13:16;;;;;;;2.83;2.62;;;51.90;21.50;;;;;;934926;152;26272;-78
2022/07/25 10:15:41;;;;;;;3.90;2.90;;;51.60;21.60;;;;;;934835;149;27990;-78
2022/07/25 10:18:08;;;;;;;2.98;2.77;;;51.10;21.60;;;;;;933017;150;26170;-75
2022/07/25 10:20:35;;;;;;;3.10;2.90;;;50.80;21.90;;;;;;936100;149;26315;-76
2022/07/25 10:23:01;;;;;;;3.30;3.10;;;50.30;21.70;;;;;;939451;148;26311;-79
2022/07/25 10:25:28;;;;;;;3.37;2.87;;;49.90;21.90;;;;;;942558;148;26252;-77
2022/07/25 10:28:02;;;;;;;3.12;2.92;;;49.40;22.00;;;;;;941785;151;26248;-76
2022/07/25 10:30:24;;;;;;;3.20;3.00;;;49.00;22.20;;;;;;940233;148;26353;-75
2022/07/25 10:33:09;;;;;;;3.75;3.45;;;48.70;22.30;;;;;;943986;148;26216;-76
2022/07/25 10:35:35;;;;;;;3.90;3.60;;;48.20;22.50;;;;;;941143;148;26224;-78
2022/07/25 10:38:02;;;;;;;3.58;3.37;;;47.80;22.70;;;;;;943900;148;26262;-75
2022/07/25 10:40:41;;;;;;;3.50;3.22;;;47.30;23.00;;;;;;940566;151;28375;-76
2022/07/25 10:43:08;;;;;;;3.77;3.47;;;47.00;23.20;;;;;;941812;148;26200;-75
2022/07/25 10:45:40;;;;;;;3.62;3.33;;;46.60;23.40;;;;;;941798;148;26324;-76
2022/07/25 10:48:07;;;;;;;3.40;3.20;;;46.20;23.30;;;;;;940473;151;26199;-75
2022/07/25 10:50:33;;;;;;;3.60;3.30;;;45.80;23.40;;;;;;942056;148;26289;-78
2022/07/25 10:53:00;;;;;;;3.65;3.35;;;45.50;23.50;;;;;;943633;148;26288;-75
2022/07/25 10:55:26;;;;;;;3.20;3.00;;;45.10;23.80;;;;;;942876;150;26765;-75
2022/07/25 10:57:59;;;;;;;4.12;3.70;;;44.70;23.90;;;;;;943551;151;28101;-75
2022/07/25 11:00:26;;;;;;;4.33;3.92;;;44.40;24.30;;;;;;942216;150;26236;-77
2022/07/25 11:02:52;;;;;;;3.72;3.45;;;44.10;24.50;;;;;;943375;151;26508;-75
2022/07/25 11:05:19;;;;;;;4.03;3.72;;;43.80;24.60;;;;;;942195;151;26240;-77
2022/07/25 11:07:51;;;;;;;3.62;3.42;;;43.50;24.70;;;;;;938563;149;27462;-75
2022/07/25 11:10:18;;;;;;;4.08;3.77;;;43.30;24.90;;;;;;940037;149;27643;-75
2022/07/25 11:12:44;;;;;;;4.30;4.00;;;43.10;25.10;;;;;;934340;149;27411;-75
2022/07/25 11:15:11;;;;;;;3.98;3.72;;;42.80;25.30;;;;;;955858;146;26232;-76
2022/07/25 11:17:38;;;;;;;4.85;4.08;;;42.60;25.70;;;;;;956199;146;26342;-77
2022/07/25 11:20:04;;;;;;;4.15;3.85;;;42.30;25.60;;;;;;955183;146;26262;-75
2022/07/25 11:22:31;;;;;;;4.25;3.87;;;42.00;25.70;;;;;;953594;146;27403;-75
2022/07/25 11:24:57;;;;;;;3.72;3.50;;;41.90;26.00;;;;;;944857;148;26191;-75
2022/07/25 11:27:24;;;;;;;3.77;3.58;;;41.60;26.10;;;;;;945268;149;26197;-74
2022/07/25 11:29:51;;;;;;;3.98;3.70;;;41.50;26.30;;;;;;946467;148;27735;-77
2022/07/25 11:32:17;;;;;;;4.15;3.80;;;41.30;26.60;;;;;;938674;149;26440;-75
2022/07/25 11:34:44;;;;;;;4.08;3.85;;;41.30;26.80;;;;;;956106;146;27343;-75
2022/07/25 11:37:10;;;;;;;4.33;3.92;;;41.20;26.80;;;;;;955020;146;26184;-75
2022/07/25 11:39:37;;;;;;;3.72;3.42;;;41.20;26.90;;;;;;954346;146;26332;-76
2022/07/25 11:42:10;;;;;;;3.87;3.58;;;41.20;26.80;;;;;;955436;146;26231;-78
2022/07/25 11:44:39;;;;;;;4.30;3.90;;;41.20;26.80;;;;;;955044;146;26280;-78
2022/07/25 11:47:05;;;;;;;4.00;3.70;;;41.30;27.00;;;;;;953638;146;26277;-75
2022/07/25 11:49:32;;;;;;;3.85;3.55;;;41.40;27.00;;;;;;956744;146;27329;-75
2022/07/25 11:51:59;;;;;;;4.15;3.85;;;41.50;27.10;;;;;;949549;146;26252;-74
2022/07/25 11:54:25;;;;;;;4.08;3.77;;;41.50;27.10;;;;;;955960;146;26320;-76
2022/07/25 11:56:52;;;;;;;3.95;3.65;;;41.70;27.20;;;;;;954538;146;26373;-77
2022/07/25 11:59:18;;;;;;;4.10;3.80;;;41.80;27.20;;;;;;955771;146;26296;-75
2022/07/25 12:01:46;;;;;;;3.98;3.67;;;41.90;26.90;;;;;;957724;146;26242;-75
2022/07/25 12:04:14;;;;;;;4.10;3.70;;;41.90;26.80;;;;;;939361;149;26229;-74
2022/07/25 12:06:41;;;;;;;5.33;3.60;;;42.00;26.70;;;;;;956390;146;26190;-74
2022/07/25 12:09:13;;;;;;;3.90;3.60;;;41.90;26.60;;;;;;956329;146;26267;-74
2022/07/25 12:11:40;;;;;;;4.15;3.85;;;41.90;26.70;;;;;;955476;146;27309;-74
2022/07/25 12:14:07;;;;;;;3.98;3.70;;;41.90;26.80;;;;;;955075;146;26313;-75
2022/07/25 12:16:33;;;;;;;3.60;3.40;;;41.70;26.80;;;;;;954848;146;26223;-75
2022/07/25 12:19:00;;;;;;;4.30;4.00;;;41.70;26.80;;;;;;955960;146;26182;-75
2022/07/25 12:21:26;;;;;;;3.75;3.42;;;41.50;26.80;;;;;;956930;146;27886;-76
2022/07/25 12:23:53;;;;;;;6.67;4.15;;;41.40;27.00;;;;;;948470;146;26334;-75
2022/07/25 12:26:20;;;;;;;4.12;3.55;;;41.40;27.10;;;;;;941205;148;27325;-74
2022/07/25 12:28:46;;;;;;;3.77;3.47;;;41.20;27.10;;;;;;937066;148;26202;-75
2022/07/25 12:31:13;;;;;;;4.28;3.95;;;41.10;27.20;;;;;;936736;148;27413;-75
2022/07/25 12:33:39;;;;;;;3.92;3.67;;;41.10;27.30;;;;;;936888;148;26243;-77
2022/07/25 12:36:06;;;;;;;4.20;3.80;;;41.00;27.40;;;;;;938847;148;26269;-74
2022/07/25 12:38:32;;;;;;;4.20;3.90;;;40.80;27.40;;;;;;937934;148;27261;-75
2022/07/25 12:40:59;;;;;;;3.87;3.58;;;40.60;27.60;;;;;;938891;148;26310;-76
2022/07/25 12:43:26;;;;;;;4.05;3.75;;;40.50;27.80;;;;;;938240;148;26330;-74
2022/07/25 12:45:52;;;;;;;4.42;4.03;;;40.40;28.00;;;;;;936749;148;26293;-75
2022/07/25 12:48:19;;;;;;;4.03;3.72;;;40.20;28.20;;;;;;938615;148;26261;-75
2022/07/25 12:50:45;;;;;;;3.72;3.42;;;40.10;28.30;;;;;;936320;148;26384;-75
2022/07/25 12:53:12;;;;;;;4.20;3.90;;;40.00;28.40;;;;;;936088;148;26314;-75